createdAt,value
2022-08-10T00:03:16.143Z,40.4
2022-08-10T00:18:38.055Z,40.2
2022-08-10T00:33:18.236Z,40
2022-08-10T00:48:18.707Z,40.1
2022-08-10T01:04:59.051Z,40
2022-08-10T01:18:19.659Z,40.5
2022-08-10T01:34:02.518Z,40.4
2022-08-10T01:48:23.018Z,40
2022-08-10T02:03:23.656Z,40
2022-08-10T02:18:25.600Z,40.3
2022-08-10T02:33:28.297Z,40.4
2022-08-10T02:48:28.401Z,40
2022-08-10T03:03:05.611Z,39.5
2022-08-10T03:18:05.986Z,40
2022-08-10T03:33:07.951Z,39.9
2022-08-10T03:48:08.674Z,40.4
2022-08-10T04:03:09.422Z,40.3
2022-08-10T04:18:10.437Z,40.2
2022-08-10T04:33:12.152Z,40.3
2022-08-10T04:48:59.629Z,40.4
2022-08-10T05:03:13.863Z,40
2022-08-10T05:18:14.848Z,40.4
2022-08-10T05:33:16.096Z,40.1
2022-08-10T05:49:01.950Z,40.2
2022-08-10T06:03:25.628Z,40.6
2022-08-10T06:18:19.475Z,40.7
2022-08-10T06:33:20.575Z,40.8
2022-08-10T06:48:20.345Z,40.3
2022-08-10T07:03:22.828Z,40.9
2022-08-10T07:18:23.578Z,40.3
2022-08-10T07:33:24.293Z,40.5
2022-08-10T07:48:25.709Z,47.5
2022-08-10T08:03:26.370Z,46.5
2022-08-10T08:18:27.739Z,47.4
2022-08-10T08:33:44.327Z,47.1
2022-08-10T08:48:29.357Z,48
2022-08-10T09:03:06.858Z,50.2
2022-08-10T09:18:07.099Z,50.3
2022-08-10T09:36:32.748Z,50.5
2022-08-10T09:48:08.519Z,49.4
2022-08-10T10:03:09.838Z,48.1
2022-08-10T10:18:11.301Z,47.7
2022-08-10T10:33:16.806Z,48.4
2022-08-10T10:48:27.572Z,47.9
2022-08-10T11:03:13.518Z,49.2
2022-08-10T11:18:21.258Z,50
2022-08-10T11:33:42.776Z,48
2022-08-10T11:49:00.880Z,48.3
2022-08-10T12:03:17.956Z,49.4
2022-08-10T12:18:19.361Z,48
2022-08-10T12:33:19.333Z,50.9
2022-08-10T12:48:21.551Z,50.3
2022-08-10T13:04:24.601Z,48.2
2022-08-10T13:18:22.087Z,48.9
2022-08-10T13:34:44.794Z,48.9
2022-08-10T13:48:22.830Z,46.8
2022-08-10T14:03:26.146Z,46.9
2022-08-10T14:18:29.231Z,45.3
2022-08-10T14:33:28.477Z,43.5
2022-08-10T14:48:33.748Z,40.8
2022-08-10T15:03:59.634Z,47.2
2022-08-10T15:18:04.906Z,42.2
2022-08-10T15:33:09.888Z,40.9
2022-08-10T15:48:07.846Z,40.3
2022-08-10T16:03:14.957Z,40.7
2022-08-10T16:18:08.710Z,40.8
2022-08-10T16:33:10.039Z,40.6
2022-08-10T16:48:10.976Z,40.2
2022-08-10T17:04:05.152Z,40.4
2022-08-10T17:18:12.321Z,40.3
2022-08-10T17:33:13.333Z,40.7
2022-08-10T17:48:15.534Z,39.9
2022-08-10T18:03:27.383Z,40.2
2022-08-10T18:18:18.546Z,40.7
2022-08-10T18:33:17.521Z,40.3
2022-08-10T18:48:18.761Z,40.3
2022-08-10T19:03:20.279Z,40.1
2022-08-10T19:18:20.498Z,40.4
2022-08-10T19:33:21.966Z,40.3
2022-08-10T19:48:23.054Z,40.4
2022-08-10T20:03:24.088Z,40.6
2022-08-10T20:18:25.120Z,40
2022-08-10T20:33:26.356Z,40.1
2022-08-10T20:48:26.313Z,40.4
2022-08-10T21:03:08.428Z,40.3
2022-08-10T21:18:04.312Z,40.3
2022-08-10T21:33:05.992Z,40
2022-08-10T21:48:18.450Z,40
2022-08-10T22:03:08.314Z,40.2
2022-08-10T22:18:09.249Z,40.3
2022-08-10T22:33:10.787Z,40
2022-08-10T22:48:11.016Z,40.2
2022-08-10T23:03:13.727Z,40
2022-08-10T23:18:14.092Z,40
2022-08-10T23:33:14.092Z,40
2022-08-10T23:48:14.980Z,40.1
